createdAt,value
2019-04-07T00:01:01.365Z,64.81
2019-04-07T00:03:34.582Z,64.70
2019-04-07T00:06:07.491Z,64.98
2019-04-07T00:08:40.832Z,65.03
2019-04-07T00:11:13.959Z,65.51
2019-04-07T00:13:47.051Z,65.51
2019-04-07T00:16:20.156Z,65.51
2019-04-07T00:18:53.513Z,65.51
2019-04-07T00:21:26.345Z,66.10
2019-04-07T00:24:01.509Z,66.10
2019-04-07T00:26:34.570Z,66.11
2019-04-07T00:29:07.402Z,65.94
2019-04-07T00:31:40.226Z,65.89
2019-04-07T00:34:13.047Z,65.98
2019-04-07T00:36:46.874Z,65.87
2019-04-07T00:39:20.686Z,65.82
2019-04-07T00:41:53.471Z,66.08
2019-04-07T00:44:25.977Z,66.39
2019-04-07T00:46:58.687Z,66.95
2019-04-07T00:49:31.226Z,66.95
2019-04-07T00:52:05.090Z,66.93
2019-04-07T00:54:38.066Z,67.20
2019-04-07T00:57:10.963Z,67.29
2019-04-07T00:59:44.027Z,67.64
2019-04-07T01:02:17.116Z,67.66
2019-04-07T01:04:49.748Z,68.01
2019-04-07T01:07:22.295Z,68.43
2019-04-07T01:09:55.275Z,68.57
2019-04-07T01:12:28.164Z,68.45
2019-04-07T01:15:00.771Z,68.61
2019-04-07T01:17:34.781Z,68.56
2019-04-07T01:20:10.568Z,68.32
2019-04-07T01:22:44.205Z,68.52
2019-04-07T01:25:16.892Z,68.28
2019-04-07T01:27:49.936Z,68.18
2019-04-07T01:30:22.989Z,68.26
2019-04-07T01:32:56.357Z,68.38
2019-04-07T01:35:29.121Z,68.56
2019-04-07T01:38:02.981Z,68.49
2019-04-07T01:40:35.575Z,68.57
2019-04-07T01:43:16.220Z,68.54
2019-04-07T01:45:55.075Z,68.61
2019-04-07T01:48:29.298Z,68.64
2019-04-07T01:51:03.331Z,68.84
2019-04-07T01:53:53.144Z,68.84
2019-04-07T01:56:36.264Z,69.11
2019-04-07T01:59:13.646Z,69.08
2019-04-07T02:02:04.698Z,69.37
2019-04-07T02:04:43.572Z,69.51
2019-04-07T02:07:27.281Z,69.82
2019-04-07T02:10:08.726Z,70.26
2019-04-07T02:12:42.946Z,70.44
2019-04-07T02:15:33.111Z,70.51
2019-04-07T02:18:16.391Z,70.96
2019-04-07T02:21:04.320Z,71.21
2019-04-07T02:23:43.713Z,71.37
2019-04-07T02:26:28.073Z,71.58
2019-04-07T02:29:06.653Z,71.67
2019-04-07T02:31:40.094Z,71.67
2019-04-07T02:34:16.067Z,71.85
2019-04-07T02:36:56.381Z,71.95
2019-04-07T02:39:34.717Z,72.06
2019-04-07T02:42:07.166Z,72.11
2019-04-07T02:44:41.387Z,72.26
2019-04-07T02:47:15.977Z,72.37
2019-04-07T02:50:03.282Z,72.31
2019-04-07T02:52:37.676Z,72.21
2019-04-07T02:55:13.092Z,72.19
2019-04-07T02:57:47.822Z,72.21
2019-04-07T03:00:22.876Z,72.25
2019-04-07T03:02:57.977Z,72.52
2019-04-07T03:05:38.877Z,72.43
2019-04-07T03:08:18.410Z,72.33
2019-04-07T03:11:02.172Z,72.19
2019-04-07T03:13:54.074Z,72.10
2019-04-07T03:16:33.111Z,72.20
2019-04-07T03:19:23.701Z,72.33
2019-04-07T03:22:08.480Z,72.58
2019-04-07T03:24:42.747Z,73.15
2019-04-07T03:27:33.835Z,73.49
2019-04-07T03:30:11.483Z,73.70
2019-04-07T03:32:53.270Z,73.53
2019-04-07T03:35:43.754Z,73.63
2019-04-07T03:38:33.660Z,73.72
2019-04-07T03:41:23.969Z,73.78
2019-04-07T03:44:03.863Z,73.98
2019-04-07T03:46:44.057Z,73.94
2019-04-07T03:49:35.129Z,74.14
2019-04-07T03:52:12.597Z,74.02
2019-04-07T03:54:57.188Z,73.91
2019-04-07T03:57:45.048Z,74.02
2019-04-07T04:01:08.522Z,74.09
2019-04-07T04:03:46.029Z,74.16
2019-04-07T04:06:19.408Z,74.40
2019-04-07T04:08:56.896Z,74.40
2019-04-07T04:11:32.292Z,74.63
2019-04-07T04:14:23.811Z,74.78
2019-04-07T04:16:57.498Z,75.05
2019-04-07T04:19:30.546Z,75.19
2019-04-07T04:22:03.989Z,75.48
2019-04-07T04:24:36.835Z,75.57
2019-04-07T04:27:09.393Z,75.56
2019-04-07T04:29:43.442Z,75.46
2019-04-07T04:32:16.699Z,75.29
2019-04-07T04:34:49.661Z,75.08
2019-04-07T04:37:37.727Z,74.79
2019-04-07T04:39:57.387Z,74.55
2019-04-07T04:42:31.167Z,74.51
2019-04-07T04:45:04.282Z,74.41
2019-04-07T04:47:37.641Z,74.16
2019-04-07T04:50:12.875Z,74.12
2019-04-07T04:52:46.898Z,73.85
2019-04-07T04:55:20.873Z,73.58
2019-04-07T04:57:54.500Z,73.24
2019-04-07T05:00:27.213Z,72.71
2019-04-07T05:03:00.952Z,71.67
2019-04-07T05:05:34.465Z,71.06
2019-04-07T05:08:07.220Z,70.27
2019-04-07T05:10:39.716Z,69.61
2019-04-07T05:13:12.495Z,68.77
2019-04-07T05:15:45.630Z,68.25
2019-04-07T05:18:18.246Z,67.64
2019-04-07T05:20:51.471Z,66.78
2019-04-07T05:23:25.253Z,66.27
2019-04-07T05:25:58.278Z,65.47
2019-04-07T05:28:33.729Z,63.03
2019-04-07T05:31:05.666Z,61.05
2019-04-07T05:33:38.462Z,60.80
2019-04-07T05:36:11.310Z,62.32
2019-04-07T05:38:44.561Z,61.70
2019-04-07T05:41:17.371Z,58.87
2019-04-07T05:43:50.280Z,57.19
2019-04-07T05:46:23.818Z,55.02
2019-04-07T05:48:56.653Z,54.29
2019-04-07T05:51:30.060Z,54.26
2019-04-07T05:54:03.627Z,55.44
2019-04-07T05:56:36.891Z,56.44
2019-04-07T05:59:12.006Z,56.61
2019-04-07T06:01:44.548Z,56.12
2019-04-07T06:04:19.159Z,55.79
2019-04-07T06:06:54.862Z,54.91
2019-04-07T06:09:26.409Z,54.70
2019-04-07T06:11:59.872Z,54.70
2019-04-07T06:14:32.636Z,55.01
2019-04-07T06:17:06.409Z,54.00
2019-04-07T06:19:41.206Z,54.04
2019-04-07T06:22:13.370Z,53.93
2019-04-07T06:24:46.121Z,53.47
2019-04-07T06:27:18.972Z,53.43
2019-04-07T06:29:52.191Z,52.84
2019-04-07T06:32:26.722Z,52.67
2019-04-07T06:34:59.531Z,52.39
2019-04-07T06:37:33.063Z,51.88
2019-04-07T06:40:06.929Z,52.20
2019-04-07T06:42:40.482Z,51.35
2019-04-07T06:45:15.086Z,50.57
2019-04-07T06:47:53.422Z,50.47
2019-04-07T06:50:48.613Z,50.57
2019-04-07T06:53:18.613Z,50.63
2019-04-07T06:56:08.921Z,50.14
2019-04-07T06:59:00.321Z,50.74
2019-04-07T07:01:38.552Z,49.90
2019-04-07T07:04:29.107Z,48.96
2019-04-07T07:07:07.317Z,48.97
2019-04-07T07:09:51.937Z,48.78
2019-04-07T07:12:38.710Z,48.23
2019-04-07T07:15:25.816Z,48.70
2019-04-07T07:18:10.254Z,48.36
2019-04-07T07:20:51.620Z,47.19
2019-04-07T07:23:28.647Z,46.86
2019-04-07T07:26:03.146Z,47.10
2019-04-07T07:28:36.047Z,47.51
2019-04-07T07:31:10.466Z,47.09
2019-04-07T07:33:43.972Z,46.08
2019-04-07T07:36:20.729Z,45.63
2019-04-07T07:38:59.998Z,45.16
2019-04-07T07:41:26.331Z,45.82
2019-04-07T07:44:03.189Z,45.58
2019-04-07T07:46:34.657Z,45.66
2019-04-07T07:49:07.582Z,44.76
2019-04-07T07:51:40.592Z,44.81
2019-04-07T07:54:15.964Z,44.71
2019-04-07T07:56:51.165Z,44.34
2019-04-07T07:59:24.065Z,44.20
2019-04-07T08:01:57.652Z,44.59
2019-04-07T08:04:30.613Z,44.06
2019-04-07T08:07:03.335Z,43.69
2019-04-07T08:09:35.885Z,42.82
2019-04-07T08:12:09.601Z,42.95
2019-04-07T08:14:43.749Z,42.34
2019-04-07T08:17:16.225Z,42.16
2019-04-07T08:19:49.261Z,42.48
2019-04-07T08:22:31.319Z,42.14
2019-04-07T08:24:56.666Z,42.18
2019-04-07T08:27:31.715Z,42.02
2019-04-07T08:30:09.949Z,41.59
2019-04-07T08:32:39.897Z,41.24
2019-04-07T08:35:13.101Z,40.95
2019-04-07T08:37:47.876Z,41.22
2019-04-07T08:40:21.503Z,41.10
2019-04-07T08:42:54.121Z,39.43
2019-04-07T08:45:29.977Z,39.70
2019-04-07T08:48:01.227Z,38.34
2019-04-07T08:50:34.271Z,38.01
2019-04-07T08:53:10.335Z,38.48
2019-04-07T08:55:42.778Z,37.10
2019-04-07T08:58:25.167Z,37.79
2019-04-07T09:00:53.738Z,37.96
2019-04-07T09:03:26.576Z,37.56
2019-04-07T09:05:59.792Z,37.04
2019-04-07T09:08:34.707Z,36.45
2019-04-07T09:11:08.995Z,36.20
2019-04-07T09:13:44.100Z,36.25
2019-04-07T09:16:25.050Z,36.41
2019-04-07T09:19:08.366Z,36.81
2019-04-07T09:21:59.141Z,35.58
2019-04-07T09:24:33.555Z,36.20
2019-04-07T09:27:08.101Z,36.19
2019-04-07T09:29:53.391Z,34.95
2019-04-07T09:32:29.078Z,34.75
2019-04-07T09:35:22.878Z,35.33
2019-04-07T09:38:14.363Z,35.62
2019-04-07T09:40:48.790Z,36.67
2019-04-07T09:43:32.617Z,36.51
2019-04-07T09:46:14.714Z,36.00
2019-04-07T09:49:07.809Z,36.45
2019-04-07T09:51:41.529Z,35.29
2019-04-07T09:54:19.186Z,35.26
2019-04-07T09:57:09.654Z,35.44
2019-04-07T09:59:56.881Z,35.50
2019-04-07T10:02:34.507Z,35.50
2019-04-07T10:05:11.143Z,35.49
2019-04-07T10:08:00.408Z,35.44
2019-04-07T10:10:51.175Z,35.14
2019-04-07T10:13:25.415Z,34.68
2019-04-07T10:16:16.477Z,34.87
2019-04-07T10:18:50.976Z,34.23
2019-04-07T10:21:26.422Z,34.60
2019-04-07T10:24:17.010Z,34.58
2019-04-07T10:26:51.843Z,34.88
2019-04-07T10:29:41.265Z,33.58
2019-04-07T10:32:34.040Z,34.03
2019-04-07T10:35:12.685Z,33.91
2019-04-07T10:38:00.709Z,34.07
2019-04-07T10:40:40.038Z,33.55
2019-04-07T10:43:15.458Z,33.50
2019-04-07T10:45:50.492Z,32.43
2019-04-07T10:48:41.030Z,33.47
2019-04-07T10:51:30.876Z,33.20
2019-04-07T10:54:14.330Z,32.96
2019-04-07T10:56:51.748Z,33.65
2019-04-07T10:59:32.208Z,32.83
2019-04-07T11:02:09.111Z,32.48
2019-04-07T11:04:45.048Z,32.98
2019-04-07T11:07:34.005Z,33.10
2019-04-07T11:10:15.905Z,33.29
2019-04-07T11:12:58.297Z,32.95
2019-04-07T11:15:39.239Z,33.06
2019-04-07T11:18:20.669Z,33.16
2019-04-07T11:21:02.166Z,33.35
2019-04-07T11:23:53.405Z,32.54
2019-04-07T11:26:25.990Z,32.12
2019-04-07T11:29:04.660Z,32.08
2019-04-07T11:31:39.045Z,31.62
2019-04-07T11:34:16.215Z,31.29
2019-04-07T11:36:57.696Z,32.20
2019-04-07T11:39:35.159Z,31.67
2019-04-07T11:42:10.040Z,31.07
2019-04-07T11:44:47.417Z,30.83
2019-04-07T11:47:26.230Z,31.49
2019-04-07T11:49:59.263Z,32.09
2019-04-07T11:52:36.556Z,32.08
2019-04-07T11:55:31.278Z,31.96
2019-04-07T11:58:30.891Z,31.39
2019-04-07T12:01:12.775Z,31.02
2019-04-07T12:03:55.804Z,30.70
2019-04-07T12:06:31.482Z,30.52
2019-04-07T12:09:09.021Z,29.94
2019-04-07T12:11:41.857Z,29.92
2019-04-07T12:14:22.564Z,30.14
2019-04-07T12:17:13.769Z,30.13
2019-04-07T12:20:05.335Z,30.03
2019-04-07T12:22:55.612Z,30.42
2019-04-07T12:25:33.337Z,30.85
2019-04-07T12:28:09.779Z,30.98
2019-04-07T12:30:48.081Z,30.81
2019-04-07T12:33:22.948Z,29.61
2019-04-07T12:36:09.821Z,29.52
2019-04-07T12:38:46.716Z,29.40
2019-04-07T12:41:27.742Z,29.41
2019-04-07T12:44:09.416Z,29.09
2019-04-07T12:46:44.246Z,28.49
2019-04-07T12:49:21.530Z,28.80
2019-04-07T12:52:04.300Z,27.86
2019-04-07T12:54:55.773Z,28.00
2019-04-07T12:57:30.805Z,28.17
2019-04-07T13:00:10.286Z,29.24
2019-04-07T13:02:54.376Z,29.55
2019-04-07T13:05:36.856Z,29.78
2019-04-07T13:08:14.533Z,29.19
2019-04-07T13:10:49.409Z,29.42
2019-04-07T13:13:42.224Z,28.38
2019-04-07T13:16:21.429Z,28.01
2019-04-07T13:19:13.142Z,28.30
2019-04-07T13:21:58.643Z,28.09
2019-04-07T13:24:48.806Z,27.78
2019-04-07T13:27:23.546Z,26.66
2019-04-07T13:29:56.442Z,27.96
2019-04-07T13:32:41.681Z,28.99
2019-04-07T13:35:22.255Z,28.84
2019-04-07T13:38:09.420Z,27.88
2019-04-07T13:40:46.759Z,27.37
2019-04-07T13:43:19.377Z,27.18
2019-04-07T13:46:04.261Z,26.09
2019-04-07T13:48:48.597Z,26.60
2019-04-07T13:51:27.966Z,25.17
2019-04-07T13:54:08.208Z,27.58
2019-04-07T13:56:59.053Z,27.53
2019-04-07T13:59:49.651Z,26.99
2019-04-07T14:02:35.948Z,25.02
2019-04-07T14:05:11.576Z,26.14
2019-04-07T14:07:57.986Z,24.74
2019-04-07T14:10:44.986Z,24.67
2019-04-07T14:13:19.990Z,24.95
2019-04-07T14:15:53.167Z,25.86
2019-04-07T14:18:45.072Z,25.94
2019-04-07T14:21:22.796Z,24.71
2019-04-07T14:24:01.538Z,22.79
2019-04-07T14:26:38.819Z,19.79
2019-04-07T14:29:18.447Z,20.04
2019-04-07T14:31:59.801Z,22.78
2019-04-07T14:34:50.949Z,22.22
2019-04-07T14:37:36.242Z,22.05
2019-04-07T14:40:11.881Z,22.61
2019-04-07T14:42:47.063Z,22.91
2019-04-07T14:45:23.193Z,25.74
2019-04-07T14:47:58.945Z,24.19
2019-04-07T14:50:49.866Z,24.92
2019-04-07T14:53:34.390Z,25.47
2019-04-07T14:56:22.631Z,24.90
2019-04-07T14:59:09.295Z,25.43
2019-04-07T15:01:50.155Z,24.77
2019-04-07T15:04:25.596Z,25.47
2019-04-07T15:07:10.061Z,25.61
2019-04-07T15:09:48.055Z,25.53
2019-04-07T15:12:26.051Z,25.45
2019-04-07T15:14:58.956Z,25.49
2019-04-07T15:17:32.942Z,25.72
2019-04-07T15:20:12.333Z,25.71
2019-04-07T15:22:44.816Z,25.61
2019-04-07T15:25:18.303Z,25.55
2019-04-07T15:27:52.767Z,25.68
2019-04-07T15:30:26.446Z,26.46
2019-04-07T15:33:01.599Z,26.66
2019-04-07T15:35:34.128Z,26.28
2019-04-07T15:38:07.356Z,26.45
2019-04-07T15:40:40.731Z,26.45
2019-04-07T15:43:13.521Z,26.43
2019-04-07T15:45:48.612Z,26.81
2019-04-07T15:48:25.786Z,26.91
2019-04-07T15:51:00.587Z,26.39
2019-04-07T15:53:30.953Z,26.42
2019-04-07T15:56:06.494Z,26.79
2019-04-07T15:58:38.301Z,26.73
2019-04-07T16:01:11.790Z,26.45
2019-04-07T16:03:47.621Z,26.95
2019-04-07T16:06:19.551Z,26.77
2019-04-07T16:08:53.142Z,26.91
2019-04-07T16:11:28.320Z,27.21
2019-04-07T16:14:01.535Z,27.11
2019-04-07T16:16:34.775Z,27.28
2019-04-07T16:19:10.823Z,27.33
2019-04-07T16:21:44.010Z,27.43
2019-04-07T16:24:17.781Z,27.97
2019-04-07T16:26:51.443Z,27.59
2019-04-07T16:29:24.279Z,27.28
2019-04-07T16:31:58.684Z,26.91
2019-04-07T16:34:31.891Z,26.83
2019-04-07T16:37:04.925Z,25.70
2019-04-07T16:39:37.767Z,25.93
2019-04-07T16:42:11.382Z,25.74
2019-04-07T16:44:45.956Z,26.16
2019-04-07T16:47:24.443Z,26.49
2019-04-07T16:49:54.662Z,26.79
2019-04-07T16:52:31.120Z,26.84
2019-04-07T16:55:02.541Z,27.64
2019-04-07T16:57:35.100Z,28.19
2019-04-07T17:00:15.281Z,28.56
2019-04-07T17:02:48.201Z,29.03
2019-04-07T17:05:21.981Z,29.40
2019-04-07T17:07:56.892Z,29.93
2019-04-07T17:10:32.821Z,30.31
2019-04-07T17:13:15.309Z,30.54
2019-04-07T17:15:40.961Z,30.88
2019-04-07T17:18:39.736Z,31.81
2019-04-07T17:21:15.856Z,32.84
2019-04-07T17:23:53.199Z,33.19
2019-04-07T17:26:24.202Z,33.70
2019-04-07T17:28:58.577Z,34.69
2019-04-07T17:31:32.677Z,35.04
2019-04-07T17:34:09.919Z,36.05
2019-04-07T17:36:41.535Z,36.79
2019-04-07T17:39:14.462Z,37.08
2019-04-07T17:41:49.878Z,37.01
2019-04-07T17:44:32.586Z,37.29
2019-04-07T17:47:19.880Z,37.99
2019-04-07T17:50:06.755Z,39.06
2019-04-07T17:52:58.038Z,37.45
2019-04-07T17:55:41.848Z,39.99
2019-04-07T17:58:22.210Z,38.43
2019-04-07T18:01:12.762Z,39.62
2019-04-07T18:03:48.576Z,39.89
2019-04-07T18:06:31.301Z,40.47
2019-04-07T18:09:12.780Z,40.87
2019-04-07T18:12:03.034Z,41.79
2019-04-07T18:14:39.511Z,42.28
2019-04-07T18:17:15.042Z,43.47
2019-04-07T18:20:08.361Z,43.45
2019-04-07T18:22:58.107Z,43.22
2019-04-07T18:25:34.368Z,43.35
2019-04-07T18:28:09.421Z,43.08
2019-04-07T18:31:03.057Z,42.97
2019-04-07T18:33:38.631Z,42.88
2019-04-07T18:36:29.215Z,43.61
2019-04-07T18:39:17.342Z,43.44
2019-04-07T18:42:11.437Z,43.31
2019-04-07T18:44:55.308Z,44.14
2019-04-07T18:47:35.761Z,43.51
2019-04-07T18:50:29.065Z,45.57
2019-04-07T18:53:05.333Z,46.04
2019-04-07T18:55:39.066Z,45.27
2019-04-07T18:58:31.208Z,47.07
2019-04-07T19:01:08.624Z,48.09
2019-04-07T19:03:40.635Z,47.55
2019-04-07T19:06:18.113Z,47.86
2019-04-07T19:08:54.378Z,47.94
2019-04-07T19:11:28.596Z,47.98
2019-04-07T19:14:30.816Z,49.10
2019-04-07T19:16:50.727Z,48.03
2019-04-07T19:19:33.387Z,48.14
2019-04-07T19:22:24.784Z,48.74
2019-04-07T19:25:17.267Z,49.50
2019-04-07T19:28:08.123Z,50.03
2019-04-07T19:30:59.265Z,50.12
2019-04-07T19:33:33.925Z,50.10
2019-04-07T19:36:27.391Z,52.26
2019-04-07T19:39:02.692Z,52.71
2019-04-07T19:41:56.285Z,52.98
2019-04-07T19:44:38.950Z,55.41
2019-04-07T19:47:22.896Z,54.95
2019-04-07T19:50:13.655Z,54.89
2019-04-07T19:53:10.010Z,55.51
2019-04-07T19:55:47.252Z,55.30
2019-04-07T19:58:26.376Z,55.87
2019-04-07T20:01:12.754Z,56.30
2019-04-07T20:03:50.356Z,56.48
2019-04-07T20:06:27.929Z,55.99
2019-04-07T20:09:20.076Z,55.79
2019-04-07T20:11:55.406Z,55.62
2019-04-07T20:14:51.967Z,55.58
2019-04-07T20:17:38.808Z,54.95
2019-04-07T20:20:14.012Z,55.20
2019-04-07T20:23:00.186Z,55.48
2019-04-07T20:25:44.888Z,56.87
2019-04-07T20:28:30.395Z,56.23
2019-04-07T20:31:23.432Z,56.57
2019-04-07T20:34:02.142Z,56.77
2019-04-07T20:36:38.555Z,56.79
2019-04-07T20:39:27.450Z,57.71
2019-04-07T20:42:01.007Z,57.07
2019-04-07T20:44:36.521Z,57.99
2019-04-07T20:47:27.299Z,58.46
2019-04-07T20:50:05.529Z,59.10
2019-04-07T20:52:46.108Z,58.50
2019-04-07T20:55:39.539Z,59.77
2019-04-07T20:58:25.038Z,59.83
2019-04-07T21:01:04.640Z,60.18
2019-04-07T21:03:51.947Z,59.54
2019-04-07T21:06:44.155Z,59.40
2019-04-07T21:09:35.478Z,59.69
2019-04-07T21:12:19.265Z,59.69
2019-04-07T21:15:18.202Z,59.77
2019-04-07T21:17:42.727Z,59.77
2019-04-07T21:20:18.159Z,59.44
2019-04-07T21:22:52.650Z,60.61
2019-04-07T21:25:43.352Z,60.84
2019-04-07T21:28:18.236Z,61.00
2019-04-07T21:30:55.762Z,62.47
2019-04-07T21:33:45.761Z,62.64
2019-04-07T21:36:18.236Z,63.96
2019-04-07T21:38:58.446Z,64.77
2019-04-07T21:41:44.226Z,66.28
2019-04-07T21:44:27.063Z,65.57
2019-04-07T21:47:02.164Z,65.57
2019-04-07T21:49:38.223Z,61.65
2019-04-07T21:52:18.676Z,61.65
2019-04-07T21:55:00.776Z,62.49
2019-04-07T21:57:52.511Z,62.02
2019-04-07T22:00:32.877Z,62.86
2019-04-07T22:03:18.396Z,61.81
2019-04-07T22:06:09.551Z,62.57
2019-04-07T22:08:45.442Z,62.68
2019-04-07T22:11:22.617Z,62.93
2019-04-07T22:13:53.412Z,63.02
2019-04-07T22:16:30.757Z,62.82
2019-04-07T22:19:01.485Z,63.49
2019-04-07T22:21:34.172Z,63.64
2019-04-07T22:24:06.999Z,64.02
2019-04-07T22:26:40.539Z,63.66
2019-04-07T22:29:13.260Z,63.72
2019-04-07T22:31:47.886Z,63.66
2019-04-07T22:34:20.816Z,64.03
2019-04-07T22:36:53.745Z,64.38
2019-04-07T22:39:28.847Z,65.19
2019-04-07T22:42:02.218Z,65.20
2019-04-07T22:44:35.573Z,64.58
2019-04-07T22:47:09.416Z,64.58
2019-04-07T22:49:43.061Z,65.10
2019-04-07T22:52:17.662Z,65.15
2019-04-07T22:54:49.975Z,65.34
2019-04-07T22:57:23.330Z,66.87
2019-04-07T22:59:56.651Z,65.65
2019-04-07T23:02:29.793Z,66.18
2019-04-07T23:05:03.017Z,66.23
2019-04-07T23:07:35.703Z,66.39
2019-04-07T23:10:09.090Z,66.37
2019-04-07T23:12:42.319Z,66.37
2019-04-07T23:15:16.736Z,66.65
2019-04-07T23:17:49.412Z,67.23
2019-04-07T23:20:22.138Z,67.54
2019-04-07T23:22:54.941Z,67.68
2019-04-07T23:25:28.092Z,67.21
2019-04-07T23:28:00.811Z,66.43
2019-04-07T23:30:33.465Z,66.53
2019-04-07T23:33:06.337Z,67.08
2019-04-07T23:35:39.350Z,67.49
2019-04-07T23:38:12.280Z,67.53
2019-04-07T23:40:44.911Z,68.07
2019-04-07T23:43:17.722Z,68.34
2019-04-07T23:45:50.113Z,68.48
2019-04-07T23:48:22.796Z,68.21
2019-04-07T23:50:56.151Z,68.53
2019-04-07T23:54:11.230Z,68.66
2019-04-07T23:56:45.080Z,68.18
2019-04-07T23:59:17.451Z,67.74
